sensor_id;sensor_type;location;lat;lon;timestamp;P1;durP1;ratioP1;P2;durP2;ratioP2
1977;SDS011;989;53.016;8.346;2022-12-18T00:01:14;22.20;;;11.30;;
1977;SDS011;989;53.016;8.346;2022-12-18T00:03:48;32.70;;;14.02;;
1977;SDS011;989;53.016;8.346;2022-12-18T00:06:15;33.72;;;9.68;;
1977;SDS011;989;53.016;8.346;2022-12-18T00:08:42;25.25;;;10.65;;
1977;SDS011;989;53.016;8.346;2022-12-18T00:11:13;36.53;;;11.27;;
1977;SDS011;989;53.016;8.346;2022-12-18T00:13:44;26.55;;;11.82;;
1977;SDS011;989;53.016;8.346;2022-12-18T00:16:11;47.30;;;12.98;;
1977;SDS011;989;53.016;8.346;2022-12-18T00:18:45;40.47;;;12.60;;
1977;SDS011;989;53.016;8.346;2022-12-18T00:21:11;23.83;;;9.77;;
1977;SDS011;989;53.016;8.346;2022-12-18T00:23:38;31.23;;;10.13;;
1977;SDS011;989;53.016;8.346;2022-12-18T00:26:06;39.20;;;14.38;;
1977;SDS011;989;53.016;8.346;2022-12-18T00:28:41;30.30;;;11.32;;
1977;SDS011;989;53.016;8.346;2022-12-18T00:31:11;24.70;;;10.65;;
1977;SDS011;989;53.016;8.346;2022-12-18T00:33:42;21.13;;;8.48;;
1977;SDS011;989;53.016;8.346;2022-12-18T00:38:40;23.60;;;9.27;;
1977;SDS011;989;53.016;8.346;2022-12-18T00:41:06;23.02;;;9.13;;
1977;SDS011;989;53.016;8.346;2022-12-18T00:43:33;30.45;;;9.20;;
1977;SDS011;989;53.016;8.346;2022-12-18T00:46:01;37.38;;;12.43;;
1977;SDS011;989;53.016;8.346;2022-12-18T00:48:26;26.10;;;7.32;;
1977;SDS011;989;53.016;8.346;2022-12-18T00:50:52;35.87;;;10.60;;
1977;SDS011;989;53.016;8.346;2022-12-18T00:53:18;24.07;;;10.87;;
1977;SDS011;989;53.016;8.346;2022-12-18T00:55:44;19.73;;;6.67;;
1977;SDS011;989;53.016;8.346;2022-12-18T00:58:11;24.90;;;10.30;;
1977;SDS011;989;53.016;8.346;2022-12-18T01:00:40;27.63;;;12.40;;
1977;SDS011;989;53.016;8.346;2022-12-18T01:03:06;28.35;;;12.07;;
1977;SDS011;989;53.016;8.346;2022-12-18T01:05:32;21.73;;;9.70;;
1977;SDS011;989;53.016;8.346;2022-12-18T01:07:59;27.10;;;11.55;;
1977;SDS011;989;53.016;8.346;2022-12-18T01:10:25;37.25;;;12.00;;
1977;SDS011;989;53.016;8.346;2022-12-18T01:12:51;30.13;;;12.20;;
1977;SDS011;989;53.016;8.346;2022-12-18T01:15:17;14.53;;;7.93;;
1977;SDS011;989;53.016;8.346;2022-12-18T01:17:44;14.05;;;7.28;;
1977;SDS011;989;53.016;8.346;2022-12-18T01:20:11;24.97;;;12.87;;
1977;SDS011;989;53.016;8.346;2022-12-18T01:22:37;33.53;;;10.93;;
1977;SDS011;989;53.016;8.346;2022-12-18T01:25:04;52.42;;;13.20;;
1977;SDS011;989;53.016;8.346;2022-12-18T01:27:30;21.45;;;9.65;;
1977;SDS011;989;53.016;8.346;2022-12-18T01:29:58;36.17;;;10.27;;
1977;SDS011;989;53.016;8.346;2022-12-18T01:32:24;25.47;;;9.57;;
1977;SDS011;989;53.016;8.346;2022-12-18T01:34:49;23.27;;;10.00;;
1977;SDS011;989;53.016;8.346;2022-12-18T01:37:15;21.83;;;10.97;;
1977;SDS011;989;53.016;8.346;2022-12-18T01:39:41;28.73;;;9.23;;
1977;SDS011;989;53.016;8.346;2022-12-18T01:42:13;40.03;;;11.23;;
1977;SDS011;989;53.016;8.346;2022-12-18T01:47:33;22.25;;;11.10;;
1977;SDS011;989;53.016;8.346;2022-12-18T01:50:18;30.77;;;12.65;;
1977;SDS011;989;53.016;8.346;2022-12-18T01:53:06;23.92;;;11.60;;
1977;SDS011;989;53.016;8.346;2022-12-18T01:55:43;22.63;;;8.90;;
1977;SDS011;989;53.016;8.346;2022-12-18T01:58:16;19.77;;;7.60;;
1977;SDS011;989;53.016;8.346;2022-12-18T02:00:43;17.60;;;8.70;;
1977;SDS011;989;53.016;8.346;2022-12-18T02:03:10;20.88;;;10.65;;
1977;SDS011;989;53.016;8.346;2022-12-18T02:11:32;17.20;;;10.52;;
1977;SDS011;989;53.016;8.346;2022-12-18T02:14:32;15.10;;;8.32;;
1977;SDS011;989;53.016;8.346;2022-12-18T02:17:23;32.13;;;11.07;;
1977;SDS011;989;53.016;8.346;2022-12-18T02:28:41;19.00;;;9.48;;
1977;SDS011;989;53.016;8.346;2022-12-18T02:31:13;26.55;;;6.40;;
1977;SDS011;989;53.016;8.346;2022-12-18T02:33:49;8.32;;;5.93;;
1977;SDS011;989;53.016;8.346;2022-12-18T02:36:18;18.67;;;10.32;;
1977;SDS011;989;53.016;8.346;2022-12-18T02:38:47;25.27;;;13.18;;
1977;SDS011;989;53.016;8.346;2022-12-18T02:41:15;22.35;;;10.27;;
1977;SDS011;989;53.016;8.346;2022-12-18T02:43:46;23.35;;;10.70;;
1977;SDS011;989;53.016;8.346;2022-12-18T02:46:44;31.77;;;10.15;;
1977;SDS011;989;53.016;8.346;2022-12-18T02:49:19;17.00;;;7.65;;
1977;SDS011;989;53.016;8.346;2022-12-18T02:57:34;16.90;;;8.07;;
1977;SDS011;989;53.016;8.346;2022-12-18T03:00:20;27.63;;;10.38;;
1977;SDS011;989;53.016;8.346;2022-12-18T03:02:56;30.38;;;6.70;;
1977;SDS011;989;53.016;8.346;2022-12-18T03:05:47;22.35;;;8.27;;
1977;SDS011;989;53.016;8.346;2022-12-18T03:08:20;22.58;;;11.48;;
1977;SDS011;989;53.016;8.346;2022-12-18T03:10:57;23.20;;;8.00;;
1977;SDS011;989;53.016;8.346;2022-12-18T03:14:04;19.13;;;8.43;;
1977;SDS011;989;53.016;8.346;2022-12-18T03:16:32;14.10;;;8.48;;
1977;SDS011;989;53.016;8.346;2022-12-18T03:19:01;23.02;;;9.75;;
1977;SDS011;989;53.016;8.346;2022-12-18T03:21:44;22.70;;;8.45;;
1977;SDS011;989;53.016;8.346;2022-12-18T03:24:15;24.23;;;10.77;;
1977;SDS011;989;53.016;8.346;2022-12-18T03:26:43;13.63;;;7.38;;
1977;SDS011;989;53.016;8.346;2022-12-18T03:29:17;17.40;;;6.65;;
1977;SDS011;989;53.016;8.346;2022-12-18T03:32:00;12.50;;;5.78;;
1977;SDS011;989;53.016;8.346;2022-12-18T03:34:32;35.28;;;5.22;;
1977;SDS011;989;53.016;8.346;2022-12-18T03:37:02;23.80;;;7.47;;
1977;SDS011;989;53.016;8.346;2022-12-18T03:39:29;16.60;;;6.72;;
1977;SDS011;989;53.016;8.346;2022-12-18T03:44:34;9.73;;;7.80;;
1977;SDS011;989;53.016;8.346;2022-12-18T03:47:35;15.00;;;5.93;;
1977;SDS011;989;53.016;8.346;2022-12-18T03:50:46;22.38;;;7.50;;
1977;SDS011;989;53.016;8.346;2022-12-18T03:53:32;17.65;;;5.15;;
1977;SDS011;989;53.016;8.346;2022-12-18T03:56:11;28.73;;;7.03;;
1977;SDS011;989;53.016;8.346;2022-12-18T03:58:39;12.43;;;4.80;;
1977;SDS011;989;53.016;8.346;2022-12-18T04:01:06;19.60;;;6.55;;
1977;SDS011;989;53.016;8.346;2022-12-18T04:03:35;18.65;;;9.98;;
1977;SDS011;989;53.016;8.346;2022-12-18T04:06:01;17.27;;;6.72;;
1977;SDS011;989;53.016;8.346;2022-12-18T04:08:28;8.38;;;5.07;;
1977;SDS011;989;53.016;8.346;2022-12-18T04:10:54;13.40;;;5.75;;
1977;SDS011;989;53.016;8.346;2022-12-18T04:13:24;13.10;;;5.55;;
1977;SDS011;989;53.016;8.346;2022-12-18T04:15:54;21.27;;;7.00;;
1977;SDS011;989;53.016;8.346;2022-12-18T04:18:20;9.68;;;3.80;;
1977;SDS011;989;53.016;8.346;2022-12-18T04:20:45;12.57;;;7.13;;
1977;SDS011;989;53.016;8.346;2022-12-18T04:23:11;9.13;;;5.37;;
1977;SDS011;989;53.016;8.346;2022-12-18T04:25:37;9.80;;;4.97;;
1977;SDS011;989;53.016;8.346;2022-12-18T04:28:02;6.47;;;4.40;;
1977;SDS011;989;53.016;8.346;2022-12-18T04:30:28;20.50;;;5.67;;
1977;SDS011;989;53.016;8.346;2022-12-18T04:32:54;9.57;;;5.80;;
1977;SDS011;989;53.016;8.346;2022-12-18T04:35:19;16.73;;;8.17;;
1977;SDS011;989;53.016;8.346;2022-12-18T04:37:45;5.90;;;4.40;;
1977;SDS011;989;53.016;8.346;2022-12-18T04:40:11;27.30;;;10.77;;
1977;SDS011;989;53.016;8.346;2022-12-18T04:42:37;10.85;;;6.50;;
1977;SDS011;989;53.016;8.346;2022-12-18T04:45:05;15.30;;;8.23;;
1977;SDS011;989;53.016;8.346;2022-12-18T04:47:32;25.00;;;7.70;;
1977;SDS011;989;53.016;8.346;2022-12-18T04:49:58;16.80;;;8.37;;
1977;SDS011;989;53.016;8.346;2022-12-18T04:52:23;22.77;;;8.27;;
1977;SDS011;989;53.016;8.346;2022-12-18T04:54:49;11.17;;;6.53;;
1977;SDS011;989;53.016;8.346;2022-12-18T04:57:16;16.10;;;7.40;;
1977;SDS011;989;53.016;8.346;2022-12-18T04:59:43;6.07;;;4.97;;
1977;SDS011;989;53.016;8.346;2022-12-18T05:02:09;9.38;;;4.93;;
1977;SDS011;989;53.016;8.346;2022-12-18T05:04:35;16.20;;;7.45;;
1977;SDS011;989;53.016;8.346;2022-12-18T05:07:01;7.23;;;4.27;;
1977;SDS011;989;53.016;8.346;2022-12-18T05:09:26;9.00;;;6.50;;
1977;SDS011;989;53.016;8.346;2022-12-18T05:11:52;10.33;;;5.07;;
1977;SDS011;989;53.016;8.346;2022-12-18T05:14:18;11.48;;;4.47;;
1977;SDS011;989;53.016;8.346;2022-12-18T05:16:44;9.63;;;5.63;;
1977;SDS011;989;53.016;8.346;2022-12-18T05:19:10;7.40;;;5.57;;
1977;SDS011;989;53.016;8.346;2022-12-18T05:21:35;22.70;;;6.13;;
1977;SDS011;989;53.016;8.346;2022-12-18T05:24:01;5.83;;;4.23;;
1977;SDS011;989;53.016;8.346;2022-12-18T05:26:27;18.17;;;7.63;;
1977;SDS011;989;53.016;8.346;2022-12-18T05:28:53;16.27;;;5.50;;
1977;SDS011;989;53.016;8.346;2022-12-18T05:31:18;23.37;;;6.00;;
1977;SDS011;989;53.016;8.346;2022-12-18T05:33:44;15.67;;;6.63;;
1977;SDS011;989;53.016;8.346;2022-12-18T05:36:10;20.67;;;6.47;;
1977;SDS011;989;53.016;8.346;2022-12-18T05:38:37;12.02;;;6.20;;
1977;SDS011;989;53.016;8.346;2022-12-18T05:41:04;16.55;;;6.25;;
1977;SDS011;989;53.016;8.346;2022-12-18T05:43:31;10.15;;;4.32;;
1977;SDS011;989;53.016;8.346;2022-12-18T05:46:08;9.40;;;6.13;;
1977;SDS011;989;53.016;8.346;2022-12-18T05:48:38;15.63;;;4.38;;
1977;SDS011;989;53.016;8.346;2022-12-18T05:51:05;13.17;;;6.50;;
1977;SDS011;989;53.016;8.346;2022-12-18T05:53:34;6.55;;;4.25;;
1977;SDS011;989;53.016;8.346;2022-12-18T05:56:02;9.55;;;5.45;;
1977;SDS011;989;53.016;8.346;2022-12-18T05:58:30;18.63;;;4.85;;
1977;SDS011;989;53.016;8.346;2022-12-18T06:00:56;4.22;;;3.10;;
1977;SDS011;989;53.016;8.346;2022-12-18T06:03:22;11.75;;;5.00;;
1977;SDS011;989;53.016;8.346;2022-12-18T06:05:48;10.95;;;5.40;;
1977;SDS011;989;53.016;8.346;2022-12-18T06:08:14;10.43;;;4.40;;
1977;SDS011;989;53.016;8.346;2022-12-18T06:10:40;13.97;;;4.90;;
1977;SDS011;989;53.016;8.346;2022-12-18T06:13:06;11.60;;;6.70;;
1977;SDS011;989;53.016;8.346;2022-12-18T06:15:32;9.33;;;6.27;;
1977;SDS011;989;53.016;8.346;2022-12-18T06:18:01;10.23;;;5.00;;
1977;SDS011;989;53.016;8.346;2022-12-18T06:20:26;9.20;;;3.73;;
1977;SDS011;989;53.016;8.346;2022-12-18T06:22:55;10.90;;;4.10;;
1977;SDS011;989;53.016;8.346;2022-12-18T06:25:21;8.60;;;3.30;;
1977;SDS011;989;53.016;8.346;2022-12-18T06:27:47;9.83;;;6.40;;
1977;SDS011;989;53.016;8.346;2022-12-18T06:30:13;21.52;;;5.47;;
1977;SDS011;989;53.016;8.346;2022-12-18T06:32:39;6.28;;;4.07;;
1977;SDS011;989;53.016;8.346;2022-12-18T06:35:05;7.60;;;5.50;;
1977;SDS011;989;53.016;8.346;2022-12-18T06:37:31;15.43;;;5.60;;
1977;SDS011;989;53.016;8.346;2022-12-18T06:39:57;11.10;;;6.17;;
1977;SDS011;989;53.016;8.346;2022-12-18T06:42:24;7.47;;;4.87;;
1977;SDS011;989;53.016;8.346;2022-12-18T06:44:50;4.45;;;2.63;;
1977;SDS011;989;53.016;8.346;2022-12-18T06:47:16;8.43;;;3.57;;
1977;SDS011;989;53.016;8.346;2022-12-18T06:49:41;14.67;;;4.53;;
1977;SDS011;989;53.016;8.346;2022-12-18T06:52:07;11.75;;;6.15;;
1977;SDS011;989;53.016;8.346;2022-12-18T06:54:33;13.53;;;4.87;;
1977;SDS011;989;53.016;8.346;2022-12-18T06:56:59;11.67;;;8.73;;
1977;SDS011;989;53.016;8.346;2022-12-18T06:59:25;4.40;;;2.47;;
1977;SDS011;989;53.016;8.346;2022-12-18T07:01:51;5.97;;;3.33;;
1977;SDS011;989;53.016;8.346;2022-12-18T07:04:16;14.30;;;4.50;;
1977;SDS011;989;53.016;8.346;2022-12-18T07:06:42;6.20;;;4.90;;
1977;SDS011;989;53.016;8.346;2022-12-18T07:09:08;23.70;;;5.13;;
1977;SDS011;989;53.016;8.346;2022-12-18T07:11:33;13.90;;;4.37;;
1977;SDS011;989;53.016;8.346;2022-12-18T07:13:59;11.50;;;4.10;;
1977;SDS011;989;53.016;8.346;2022-12-18T07:16:25;3.17;;;2.87;;
1977;SDS011;989;53.016;8.346;2022-12-18T07:18:51;8.10;;;2.53;;
1977;SDS011;989;53.016;8.346;2022-12-18T07:21:19;18.65;;;4.85;;
1977;SDS011;989;53.016;8.346;2022-12-18T07:23:44;6.72;;;3.70;;
1977;SDS011;989;53.016;8.346;2022-12-18T07:26:13;4.38;;;3.20;;
1977;SDS011;989;53.016;8.346;2022-12-18T07:28:41;13.27;;;5.53;;
1977;SDS011;989;53.016;8.346;2022-12-18T07:31:08;7.78;;;3.58;;
1977;SDS011;989;53.016;8.346;2022-12-18T07:33:37;12.70;;;6.47;;
1977;SDS011;989;53.016;8.346;2022-12-18T07:36:03;8.02;;;3.90;;
1977;SDS011;989;53.016;8.346;2022-12-18T07:38:32;9.50;;;4.68;;
1977;SDS011;989;53.016;8.346;2022-12-18T07:41:06;11.73;;;6.22;;
1977;SDS011;989;53.016;8.346;2022-12-18T07:43:37;11.02;;;4.63;;
1977;SDS011;989;53.016;8.346;2022-12-18T07:46:04;9.80;;;6.82;;
1977;SDS011;989;53.016;8.346;2022-12-18T07:48:33;9.65;;;5.35;;
1977;SDS011;989;53.016;8.346;2022-12-18T07:50:59;5.15;;;3.03;;
1977;SDS011;989;53.016;8.346;2022-12-18T07:53:26;11.80;;;4.32;;
1977;SDS011;989;53.016;8.346;2022-12-18T07:55:58;21.80;;;6.00;;
1977;SDS011;989;53.016;8.346;2022-12-18T07:58:28;13.23;;;5.60;;
1977;SDS011;989;53.016;8.346;2022-12-18T08:00:54;4.95;;;3.67;;
1977;SDS011;989;53.016;8.346;2022-12-18T08:03:30;13.73;;;5.55;;
1977;SDS011;989;53.016;8.346;2022-12-18T08:06:00;11.53;;;5.50;;
1977;SDS011;989;53.016;8.346;2022-12-18T08:08:28;22.70;;;6.85;;
1977;SDS011;989;53.016;8.346;2022-12-18T08:10:54;5.05;;;3.38;;
1977;SDS011;989;53.016;8.346;2022-12-18T08:13:20;7.95;;;2.42;;
1977;SDS011;989;53.016;8.346;2022-12-18T08:15:46;19.10;;;5.20;;
1977;SDS011;989;53.016;8.346;2022-12-18T08:18:11;4.80;;;3.17;;
1977;SDS011;989;53.016;8.346;2022-12-18T08:20:37;12.87;;;5.03;;
1977;SDS011;989;53.016;8.346;2022-12-18T08:23:03;11.13;;;3.77;;
1977;SDS011;989;53.016;8.346;2022-12-18T08:25:28;10.77;;;5.07;;
1977;SDS011;989;53.016;8.346;2022-12-18T08:27:54;8.17;;;3.50;;
1977;SDS011;989;53.016;8.346;2022-12-18T08:30:21;9.57;;;4.97;;
1977;SDS011;989;53.016;8.346;2022-12-18T08:32:47;9.00;;;4.13;;
1977;SDS011;989;53.016;8.346;2022-12-18T08:35:17;12.48;;;5.72;;
1977;SDS011;989;53.016;8.346;2022-12-18T08:37:43;11.27;;;4.27;;
1977;SDS011;989;53.016;8.346;2022-12-18T08:40:09;6.47;;;3.83;;
1977;SDS011;989;53.016;8.346;2022-12-18T08:42:35;5.43;;;3.03;;
1977;SDS011;989;53.016;8.346;2022-12-18T08:45:19;17.83;;;6.72;;
1977;SDS011;989;53.016;8.346;2022-12-18T08:47:45;3.83;;;3.43;;
1977;SDS011;989;53.016;8.346;2022-12-18T08:50:11;8.30;;;3.10;;
1977;SDS011;989;53.016;8.346;2022-12-18T08:52:37;13.43;;;5.43;;
1977;SDS011;989;53.016;8.346;2022-12-18T08:55:03;10.90;;;4.83;;
1977;SDS011;989;53.016;8.346;2022-12-18T08:57:29;9.93;;;5.30;;
1977;SDS011;989;53.016;8.346;2022-12-18T08:59:55;9.60;;;2.70;;
1977;SDS011;989;53.016;8.346;2022-12-18T09:02:20;8.43;;;4.30;;
1977;SDS011;989;53.016;8.346;2022-12-18T09:04:46;8.53;;;5.17;;
1977;SDS011;989;53.016;8.346;2022-12-18T09:07:12;10.25;;;5.40;;
1977;SDS011;989;53.016;8.346;2022-12-18T09:09:38;16.03;;;5.67;;
1977;SDS011;989;53.016;8.346;2022-12-18T09:12:04;12.13;;;5.60;;
1977;SDS011;989;53.016;8.346;2022-12-18T09:14:29;12.90;;;5.60;;
1977;SDS011;989;53.016;8.346;2022-12-18T09:16:55;17.60;;;7.17;;
1977;SDS011;989;53.016;8.346;2022-12-18T09:19:20;8.70;;;5.50;;
1977;SDS011;989;53.016;8.346;2022-12-18T09:21:46;15.10;;;6.17;;
1977;SDS011;989;53.016;8.346;2022-12-18T09:24:12;12.53;;;5.23;;
1977;SDS011;989;53.016;8.346;2022-12-18T09:26:39;8.38;;;5.20;;
1977;SDS011;989;53.016;8.346;2022-12-18T09:29:04;16.60;;;4.43;;
1977;SDS011;989;53.016;8.346;2022-12-18T09:31:32;13.13;;;5.88;;
1977;SDS011;989;53.016;8.346;2022-12-18T09:33:58;19.25;;;5.50;;
1977;SDS011;989;53.016;8.346;2022-12-18T09:36:24;21.70;;;6.93;;
1977;SDS011;989;53.016;8.346;2022-12-18T09:38:50;17.50;;;8.13;;
1977;SDS011;989;53.016;8.346;2022-12-18T09:44:29;18.30;;;7.03;;
1977;SDS011;989;53.016;8.346;2022-12-18T09:47:18;14.02;;;6.43;;
1977;SDS011;989;53.016;8.346;2022-12-18T09:49:50;11.30;;;6.38;;
1977;SDS011;989;53.016;8.346;2022-12-18T09:52:41;17.92;;;5.75;;
1977;SDS011;989;53.016;8.346;2022-12-18T09:55:22;13.45;;;6.57;;
1977;SDS011;989;53.016;8.346;2022-12-18T09:58:00;15.25;;;5.95;;
1977;SDS011;989;53.016;8.346;2022-12-18T10:00:32;18.35;;;8.38;;
1977;SDS011;989;53.016;8.346;2022-12-18T10:03:14;11.07;;;6.10;;
1977;SDS011;989;53.016;8.346;2022-12-18T10:20:49;13.23;;;7.00;;
1977;SDS011;989;53.016;8.346;2022-12-18T10:23:24;27.20;;;10.18;;
1977;SDS011;989;53.016;8.346;2022-12-18T10:26:12;20.05;;;8.05;;
1977;SDS011;989;53.016;8.346;2022-12-18T10:28:38;14.13;;;6.87;;
1977;SDS011;989;53.016;8.346;2022-12-18T10:31:13;13.25;;;7.15;;
1977;SDS011;989;53.016;8.346;2022-12-18T10:33:43;12.40;;;5.15;;
1977;SDS011;989;53.016;8.346;2022-12-18T10:36:09;15.70;;;6.43;;
1977;SDS011;989;53.016;8.346;2022-12-18T10:38:35;14.07;;;7.18;;
1977;SDS011;989;53.016;8.346;2022-12-18T10:41:06;26.83;;;10.20;;
1977;SDS011;989;53.016;8.346;2022-12-18T10:44:10;18.02;;;6.35;;
1977;SDS011;989;53.016;8.346;2022-12-18T10:46:53;18.33;;;6.88;;
1977;SDS011;989;53.016;8.346;2022-12-18T10:49:25;14.38;;;7.00;;
1977;SDS011;989;53.016;8.346;2022-12-18T10:52:04;12.25;;;6.85;;
1977;SDS011;989;53.016;8.346;2022-12-18T10:54:51;14.02;;;5.97;;
1977;SDS011;989;53.016;8.346;2022-12-18T10:59:58;13.73;;;6.22;;
1977;SDS011;989;53.016;8.346;2022-12-18T11:02:44;13.77;;;7.22;;
1977;SDS011;989;53.016;8.346;2022-12-18T11:08:01;9.38;;;4.28;;
1977;SDS011;989;53.016;8.346;2022-12-18T11:10:30;13.93;;;7.25;;
1977;SDS011;989;53.016;8.346;2022-12-18T11:13:09;15.50;;;6.65;;
1977;SDS011;989;53.016;8.346;2022-12-18T11:15:43;16.40;;;8.73;;
1977;SDS011;989;53.016;8.346;2022-12-18T11:18:16;32.90;;;8.48;;
1977;SDS011;989;53.016;8.346;2022-12-18T11:20:55;17.50;;;6.40;;
1977;SDS011;989;53.016;8.346;2022-12-18T11:23:34;15.18;;;7.68;;
1977;SDS011;989;53.016;8.346;2022-12-18T11:26:03;18.25;;;6.85;;
1977;SDS011;989;53.016;8.346;2022-12-18T11:28:35;19.83;;;5.70;;
1977;SDS011;989;53.016;8.346;2022-12-18T11:31:33;9.60;;;4.50;;
1977;SDS011;989;53.016;8.346;2022-12-18T11:34:00;19.13;;;6.23;;
1977;SDS011;989;53.016;8.346;2022-12-18T11:36:51;26.13;;;7.28;;
1977;SDS011;989;53.016;8.346;2022-12-18T11:39:24;12.57;;;5.90;;
1977;SDS011;989;53.016;8.346;2022-12-18T11:42:19;11.40;;;4.88;;
1977;SDS011;989;53.016;8.346;2022-12-18T11:45:01;13.45;;;6.43;;
1977;SDS011;989;53.016;8.346;2022-12-18T11:47:42;20.63;;;6.78;;
1977;SDS011;989;53.016;8.346;2022-12-18T11:53:13;14.05;;;6.15;;
1977;SDS011;989;53.016;8.346;2022-12-18T11:56:02;15.80;;;5.20;;
1977;SDS011;989;53.016;8.346;2022-12-18T11:59:05;9.98;;;5.68;;
1977;SDS011;989;53.016;8.346;2022-12-18T12:01:50;10.68;;;5.68;;
1977;SDS011;989;53.016;8.346;2022-12-18T12:10:05;8.85;;;5.25;;
1977;SDS011;989;53.016;8.346;2022-12-18T12:21:37;11.73;;;6.82;;
1977;SDS011;989;53.016;8.346;2022-12-18T12:24:43;15.25;;;6.50;;
1977;SDS011;989;53.016;8.346;2022-12-18T12:27:36;16.08;;;7.70;;
1977;SDS011;989;53.016;8.346;2022-12-18T12:30:30;13.65;;;6.07;;
1977;SDS011;989;53.016;8.346;2022-12-18T12:35:52;7.93;;;4.78;;
1977;SDS011;989;53.016;8.346;2022-12-18T12:38:33;10.82;;;5.57;;
1977;SDS011;989;53.016;8.346;2022-12-18T12:41:08;14.90;;;6.18;;
1977;SDS011;989;53.016;8.346;2022-12-18T12:43:58;18.23;;;6.75;;
1977;SDS011;989;53.016;8.346;2022-12-18T12:46:29;10.30;;;5.15;;
1977;SDS011;989;53.016;8.346;2022-12-18T12:49:00;7.93;;;4.28;;
1977;SDS011;989;53.016;8.346;2022-12-18T12:51:33;13.60;;;7.03;;
1977;SDS011;989;53.016;8.346;2022-12-18T12:54:08;12.10;;;5.50;;
1977;SDS011;989;53.016;8.346;2022-12-18T12:56:50;7.72;;;4.03;;
1977;SDS011;989;53.016;8.346;2022-12-18T13:07:51;12.10;;;5.68;;
1977;SDS011;989;53.016;8.346;2022-12-18T13:10:32;8.38;;;4.30;;
1977;SDS011;989;53.016;8.346;2022-12-18T13:15:47;11.10;;;5.57;;
1977;SDS011;989;53.016;8.346;2022-12-18T13:18:31;13.25;;;4.68;;
1977;SDS011;989;53.016;8.346;2022-12-18T13:25:51;7.70;;;3.90;;
1977;SDS011;989;53.016;8.346;2022-12-18T13:31:13;7.68;;;4.10;;
1977;SDS011;989;53.016;8.346;2022-12-18T13:33:41;5.32;;;1.48;;
1977;SDS011;989;53.016;8.346;2022-12-18T13:36:13;9.82;;;4.63;;
1977;SDS011;989;53.016;8.346;2022-12-18T13:38:46;11.43;;;4.15;;
1977;SDS011;989;53.016;8.346;2022-12-18T13:41:26;9.45;;;5.05;;
1977;SDS011;989;53.016;8.346;2022-12-18T13:43:56;10.10;;;5.28;;
1977;SDS011;989;53.016;8.346;2022-12-18T13:46:43;6.82;;;3.50;;
1977;SDS011;989;53.016;8.346;2022-12-18T13:51:40;13.50;;;3.15;;
1977;SDS011;989;53.016;8.346;2022-12-18T13:54:17;12.98;;;4.82;;
1977;SDS011;989;53.016;8.346;2022-12-18T13:56:54;10.95;;;4.93;;
1977;SDS011;989;53.016;8.346;2022-12-18T14:02:00;8.50;;;4.63;;
1977;SDS011;989;53.016;8.346;2022-12-18T14:04:38;11.95;;;6.13;;
1977;SDS011;989;53.016;8.346;2022-12-18T14:09:59;6.80;;;3.92;;
1977;SDS011;989;53.016;8.346;2022-12-18T14:12:27;13.55;;;5.45;;
1977;SDS011;989;53.016;8.346;2022-12-18T14:18:18;18.35;;;6.95;;
1977;SDS011;989;53.016;8.346;2022-12-18T14:21:15;11.27;;;5.25;;
1977;SDS011;989;53.016;8.346;2022-12-18T14:23:46;6.15;;;3.03;;
1977;SDS011;989;53.016;8.346;2022-12-18T14:26:28;16.03;;;4.57;;
1977;SDS011;989;53.016;8.346;2022-12-18T14:28:56;5.05;;;3.78;;
1977;SDS011;989;53.016;8.346;2022-12-18T14:31:26;9.13;;;4.90;;
1977;SDS011;989;53.016;8.346;2022-12-18T14:33:55;11.07;;;5.22;;
1977;SDS011;989;53.016;8.346;2022-12-18T14:36:22;8.07;;;5.50;;
1977;SDS011;989;53.016;8.346;2022-12-18T14:38:51;8.70;;;5.03;;
1977;SDS011;989;53.016;8.346;2022-12-18T14:41:19;15.27;;;5.65;;
1977;SDS011;989;53.016;8.346;2022-12-18T14:43:47;15.55;;;4.45;;
1977;SDS011;989;53.016;8.346;2022-12-18T14:46:35;13.50;;;4.68;;
1977;SDS011;989;53.016;8.346;2022-12-18T14:51:55;10.02;;;3.70;;
1977;SDS011;989;53.016;8.346;2022-12-18T14:54:25;10.00;;;4.40;;
1977;SDS011;989;53.016;8.346;2022-12-18T14:57:01;9.75;;;4.45;;
1977;SDS011;989;53.016;8.346;2022-12-18T14:59:30;9.23;;;3.88;;
1977;SDS011;989;53.016;8.346;2022-12-18T15:02:17;6.30;;;4.20;;
1977;SDS011;989;53.016;8.346;2022-12-18T15:04:47;9.57;;;4.10;;
1977;SDS011;989;53.016;8.346;2022-12-18T15:07:24;6.10;;;4.00;;
1977;SDS011;989;53.016;8.346;2022-12-18T15:10:02;12.93;;;5.53;;
1977;SDS011;989;53.016;8.346;2022-12-18T15:12:46;10.30;;;4.57;;
1977;SDS011;989;53.016;8.346;2022-12-18T15:20:38;6.07;;;3.70;;
1977;SDS011;989;53.016;8.346;2022-12-18T15:23:25;6.00;;;3.72;;
1977;SDS011;989;53.016;8.346;2022-12-18T15:25:57;9.23;;;3.58;;
1977;SDS011;989;53.016;8.346;2022-12-18T15:28:38;17.50;;;4.13;;
1977;SDS011;989;53.016;8.346;2022-12-18T15:33:39;6.85;;;3.50;;
1977;SDS011;989;53.016;8.346;2022-12-18T15:36:11;8.20;;;3.85;;
1977;SDS011;989;53.016;8.346;2022-12-18T15:38:41;8.88;;;3.78;;
1977;SDS011;989;53.016;8.346;2022-12-18T15:41:19;9.18;;;4.22;;
1977;SDS011;989;53.016;8.346;2022-12-18T15:43:47;13.00;;;4.10;;
1977;SDS011;989;53.016;8.346;2022-12-18T15:46:15;7.18;;;3.28;;
1977;SDS011;989;53.016;8.346;2022-12-18T15:48:48;5.55;;;2.67;;
1977;SDS011;989;53.016;8.346;2022-12-18T15:51:17;9.02;;;4.22;;
1977;SDS011;989;53.016;8.346;2022-12-18T15:53:47;9.95;;;3.65;;
1977;SDS011;989;53.016;8.346;2022-12-18T15:56:16;5.10;;;3.38;;
1977;SDS011;989;53.016;8.346;2022-12-18T15:59:00;5.93;;;2.97;;
1977;SDS011;989;53.016;8.346;2022-12-18T16:01:28;6.55;;;4.30;;
1977;SDS011;989;53.016;8.346;2022-12-18T16:03:56;8.50;;;4.63;;
1977;SDS011;989;53.016;8.346;2022-12-18T16:06:22;10.15;;;4.90;;
1977;SDS011;989;53.016;8.346;2022-12-18T16:08:48;11.80;;;5.45;;
1977;SDS011;989;53.016;8.346;2022-12-18T16:11:47;9.68;;;4.53;;
1977;SDS011;989;53.016;8.346;2022-12-18T16:14:17;8.80;;;4.70;;
1977;SDS011;989;53.016;8.346;2022-12-18T16:16:57;6.13;;;3.55;;
1977;SDS011;989;53.016;8.346;2022-12-18T16:19:26;4.93;;;3.08;;
1977;SDS011;989;53.016;8.346;2022-12-18T16:21:54;5.85;;;3.50;;
1977;SDS011;989;53.016;8.346;2022-12-18T16:24:22;5.53;;;3.45;;
1977;SDS011;989;53.016;8.346;2022-12-18T16:26:56;4.53;;;2.65;;
1977;SDS011;989;53.016;8.346;2022-12-18T16:29:24;9.77;;;4.30;;
1977;SDS011;989;53.016;8.346;2022-12-18T16:31:59;6.50;;;4.00;;
1977;SDS011;989;53.016;8.346;2022-12-18T16:34:29;5.68;;;3.00;;
1977;SDS011;989;53.016;8.346;2022-12-18T16:36:59;4.30;;;2.53;;
1977;SDS011;989;53.016;8.346;2022-12-18T16:39:27;5.20;;;2.85;;
1977;SDS011;989;53.016;8.346;2022-12-18T16:41:55;6.25;;;3.53;;
1977;SDS011;989;53.016;8.346;2022-12-18T16:44:20;11.53;;;4.40;;
1977;SDS011;989;53.016;8.346;2022-12-18T16:46:46;6.70;;;3.77;;
1977;SDS011;989;53.016;8.346;2022-12-18T16:49:12;6.97;;;3.47;;
1977;SDS011;989;53.016;8.346;2022-12-18T16:51:39;7.72;;;3.95;;
1977;SDS011;989;53.016;8.346;2022-12-18T16:54:05;7.45;;;3.45;;
1977;SDS011;989;53.016;8.346;2022-12-18T16:56:31;5.30;;;3.00;;
1977;SDS011;989;53.016;8.346;2022-12-18T16:58:57;3.90;;;2.30;;
1977;SDS011;989;53.016;8.346;2022-12-18T17:01:25;7.60;;;3.45;;
1977;SDS011;989;53.016;8.346;2022-12-18T17:03:54;10.45;;;2.53;;
1977;SDS011;989;53.016;8.346;2022-12-18T17:06:25;7.28;;;3.17;;
1977;SDS011;989;53.016;8.346;2022-12-18T17:08:55;6.95;;;3.45;;
1977;SDS011;989;53.016;8.346;2022-12-18T17:11:23;5.03;;;3.20;;
1977;SDS011;989;53.016;8.346;2022-12-18T17:13:49;8.32;;;3.60;;
1977;SDS011;989;53.016;8.346;2022-12-18T17:16:15;7.13;;;3.83;;
1977;SDS011;989;53.016;8.346;2022-12-18T17:18:41;5.93;;;2.88;;
1977;SDS011;989;53.016;8.346;2022-12-18T17:21:08;3.22;;;1.98;;
1977;SDS011;989;53.016;8.346;2022-12-18T17:23:35;4.60;;;2.67;;
1977;SDS011;989;53.016;8.346;2022-12-18T17:26:01;7.90;;;4.93;;
1977;SDS011;989;53.016;8.346;2022-12-18T17:28:31;3.20;;;2.03;;
1977;SDS011;989;53.016;8.346;2022-12-18T17:30:58;5.72;;;2.72;;
1977;SDS011;989;53.016;8.346;2022-12-18T17:33:24;5.40;;;2.40;;
1977;SDS011;989;53.016;8.346;2022-12-18T17:35:49;4.30;;;2.60;;
1977;SDS011;989;53.016;8.346;2022-12-18T17:38:15;5.90;;;3.77;;